createdAt,value
2023-04-02T00:01:44.034Z,96397.56
2023-04-02T00:04:38.097Z,96401.97
2023-04-02T00:07:33.438Z,96400.41
2023-04-02T00:10:01.261Z,96395.94
2023-04-02T00:12:28.980Z,96381.91
2023-04-02T00:14:58.193Z,96390.09
2023-04-02T00:17:25.950Z,96383.41
2023-04-02T00:19:56.348Z,96389.44
2023-04-02T00:22:31.739Z,96382.91
2023-04-02T00:25:00.997Z,96392.22
2023-04-02T00:27:30.518Z,96386.88
2023-04-02T00:29:58.392Z,96381.91
2023-04-02T00:32:36.475Z,96385.47
2023-04-02T00:35:05.211Z,96389.28
2023-04-02T00:37:39.209Z,96386.03
2023-04-02T00:40:26.300Z,96380.31
2023-04-02T00:42:54.544Z,96385.97
2023-04-02T00:45:24.548Z,96384.69
2023-04-02T00:47:52.398Z,96389.78
2023-04-02T00:50:24.977Z,96390.31
2023-04-02T00:52:52.781Z,96388.06
2023-04-02T00:55:39.882Z,96399.41
2023-04-02T00:58:26.287Z,96389.53
2023-04-02T01:00:54.117Z,96384.81
2023-04-02T01:03:22.974Z,96403.63
2023-04-02T01:06:12.436Z,96398.16
2023-04-02T01:08:55.331Z,96387.28
2023-04-02T01:11:44.111Z,96397.38
2023-04-02T01:14:34.611Z,96404.63
2023-04-02T01:17:36.465Z,96399.88
2023-04-02T01:20:23.892Z,96412.66
2023-04-02T01:23:03.309Z,96407.13
2023-04-02T01:25:38.291Z,96411.72
2023-04-02T01:28:31.223Z,96428.28
2023-04-02T01:30:59.044Z,96421.78
2023-04-02T01:33:30.043Z,96423.28
2023-04-02T01:36:12.151Z,96428.16
2023-04-02T01:38:46.447Z,96436.19
2023-04-02T01:41:46.381Z,96432.31
2023-04-02T01:44:17.901Z,96435.31
2023-04-02T01:46:48.545Z,96432.88
2023-04-02T01:49:19.206Z,96432.31
2023-04-02T01:51:51.737Z,96436.88
2023-04-02T01:54:20.970Z,96426.06
2023-04-02T01:56:48.750Z,96429.09
2023-04-02T01:59:22.424Z,96429.19
2023-04-02T02:01:59.854Z,96432.44
2023-04-02T02:04:27.674Z,96426.88
2023-04-02T02:06:58.679Z,96420.31
2023-04-02T02:09:34.249Z,96422.78
2023-04-02T02:12:02.853Z,96413.88
2023-04-02T02:14:30.921Z,96418.06
2023-04-02T02:17:02.105Z,96414.13
2023-04-02T02:19:41.324Z,96407.59
2023-04-02T02:22:14.816Z,96408.00
2023-04-02T02:24:42.653Z,96406.78
2023-04-02T02:27:22.624Z,96409.50
2023-04-02T02:30:00.693Z,96406.78
2023-04-02T02:32:32.804Z,96411.25
2023-04-02T02:35:12.786Z,96412.06
2023-04-02T02:37:42.921Z,96410.41
2023-04-02T02:40:28.139Z,96410.41
2023-04-02T02:42:58.206Z,96399.34
2023-04-02T02:45:27.957Z,96414.06
2023-04-02T02:47:56.080Z,96404.00
2023-04-02T02:50:26.137Z,96410.22
2023-04-02T02:52:56.135Z,96409.16
2023-04-02T02:55:32.091Z,96400.66
2023-04-02T02:58:23.974Z,96404.66
2023-04-02T03:01:06.869Z,96407.44
2023-04-02T03:03:37.829Z,96415.25
2023-04-02T03:06:09.399Z,96411.81
2023-04-02T03:09:03.886Z,96418.84
2023-04-02T03:11:39.951Z,96415.88
2023-04-02T03:14:27.156Z,96421.91
2023-04-02T03:17:00.287Z,96426.63
2023-04-02T03:19:44.793Z,96424.28
2023-04-02T03:22:19.522Z,96422.00
2023-04-02T03:24:47.645Z,96419.78
2023-04-02T03:27:18.993Z,96434.34
2023-04-02T03:29:58.308Z,96422.81
2023-04-02T03:32:31.178Z,96432.84
2023-04-02T03:35:33.980Z,96429.66
2023-04-02T03:38:12.967Z,96433.22
2023-04-02T03:40:47.912Z,96441.66
2023-04-02T03:43:20.664Z,96446.31
2023-04-02T03:45:51.778Z,96444.53
2023-04-02T03:48:27.782Z,96452.66
2023-04-02T03:51:00.005Z,96443.59
2023-04-02T03:53:28.007Z,96444.59
2023-04-02T03:55:56.567Z,96446.69
2023-04-02T03:58:27.373Z,96447.94
2023-04-02T04:01:00.482Z,96445.63
2023-04-02T04:03:31.804Z,96443.50
2023-04-02T04:06:02.419Z,96454.78
2023-04-02T04:08:42.551Z,96451.72
2023-04-02T04:11:14.512Z,96447.78
2023-04-02T04:13:53.593Z,96460.94
2023-04-02T04:16:24.200Z,96466.97
2023-04-02T04:19:06.648Z,96459.88
2023-04-02T04:21:38.173Z,96473.56
2023-04-02T04:24:33.360Z,96462.19
2023-04-02T04:27:11.588Z,96477.44
2023-04-02T04:29:54.498Z,96477.84
2023-04-02T04:32:39.002Z,96478.41
2023-04-02T04:35:31.132Z,96480.03
2023-04-02T04:38:04.995Z,96485.94
2023-04-02T04:40:35.926Z,96483.78
2023-04-02T04:43:06.558Z,96478.81
2023-04-02T04:45:42.131Z,96492.00
2023-04-02T04:48:26.743Z,96488.19
2023-04-02T04:51:10.306Z,96499.03
2023-04-02T04:53:48.243Z,96509.56
2023-04-02T04:56:19.516Z,96495.25
2023-04-02T04:59:13.805Z,96501.66
2023-04-02T05:02:03.565Z,96502.78
2023-04-02T05:04:36.760Z,96496.50
2023-04-02T05:07:18.445Z,96504.88
2023-04-02T05:09:58.720Z,96498.88
2023-04-02T05:12:26.910Z,96502.63
2023-04-02T05:15:06.606Z,96503.44
2023-04-02T05:18:08.258Z,96509.25
2023-04-02T05:20:47.547Z,96505.91
2023-04-02T05:23:28.320Z,96515.56
2023-04-02T05:26:09.608Z,96512.84
2023-04-02T05:28:46.091Z,96512.03
2023-04-02T05:31:17.568Z,96516.41
2023-04-02T05:33:47.243Z,96519.56
2023-04-02T05:36:29.230Z,96516.63
2023-04-02T05:39:00.056Z,96522.69
2023-04-02T05:41:38.983Z,96518.38
2023-04-02T05:44:26.999Z,96519.28
2023-04-02T05:47:17.580Z,96515.63
2023-04-02T05:50:05.834Z,96504.16
2023-04-02T05:52:50.490Z,96514.53
2023-04-02T05:55:18.920Z,96508.00
2023-04-02T05:58:13.350Z,96504.63
2023-04-02T06:00:39.654Z,96512.19
2023-04-02T06:03:38.895Z,96510.16
2023-04-02T06:06:14.771Z,96519.28
2023-04-02T06:09:17.047Z,96515.97
2023-04-02T06:11:47.154Z,96519.72
2023-04-02T06:14:18.491Z,96518.56
2023-04-02T06:16:48.701Z,96527.66
2023-04-02T06:19:26.182Z,96526.06
2023-04-02T06:21:59.468Z,96525.00
2023-04-02T06:24:27.772Z,96527.63
2023-04-02T06:26:59.886Z,96525.06
2023-04-02T06:29:31.703Z,96526.13
2023-04-02T06:32:00.937Z,96528.72
2023-04-02T06:34:29.856Z,96523.81
2023-04-02T06:37:12.479Z,96530.34
2023-04-02T06:39:40.561Z,96526.97
2023-04-02T06:42:14.278Z,96515.44
2023-04-02T06:45:25.647Z,96520.84
2023-04-02T06:48:19.302Z,96518.31
2023-04-02T06:50:56.914Z,96520.94
2023-04-02T06:53:32.149Z,96517.28
2023-04-02T06:56:07.064Z,96519.44
2023-04-02T06:58:36.206Z,96516.84
2023-04-02T07:01:04.242Z,96518.91
2023-04-02T07:03:41.092Z,96510.16
2023-04-02T07:06:34.622Z,96513.25
2023-04-02T07:09:03.881Z,96509.13
2023-04-02T07:11:31.692Z,96520.50
2023-04-02T07:14:03.016Z,96511.59
2023-04-02T07:16:32.187Z,96517.34
2023-04-02T07:19:00.521Z,96519.38
2023-04-02T07:21:31.627Z,96523.00
2023-04-02T07:23:59.673Z,96530.19
2023-04-02T07:26:27.999Z,96530.19
2023-04-02T07:28:55.933Z,96521.47
2023-04-02T07:31:25.907Z,96527.84
2023-04-02T07:34:00.500Z,96529.25
2023-04-02T07:36:28.847Z,96537.38
2023-04-02T07:38:56.524Z,96529.06
2023-04-02T07:41:26.424Z,96522.00
2023-04-02T08:11:25.476Z,96530.81
2023-04-02T08:13:54.214Z,96536.69
2023-04-02T08:16:23.473Z,96529.63
2023-04-02T08:18:51.534Z,96545.63
2023-04-02T08:21:19.387Z,96535.50
2023-04-02T08:23:47.092Z,96532.38
2023-04-02T08:26:18.721Z,96531.69
2023-04-02T08:28:46.550Z,96535.56
2023-04-02T08:31:14.316Z,96543.88
2023-04-02T08:33:42.083Z,96540.56
2023-04-02T08:36:15.679Z,96544.75
2023-04-02T08:38:43.456Z,96540.94
2023-04-02T08:41:27.637Z,96540.41
2023-04-02T08:44:04.267Z,96541.66
2023-04-02T08:46:34.905Z,96541.91
2023-04-02T08:49:03.779Z,96540.38
2023-04-02T08:51:34.409Z,96546.56
2023-04-02T08:54:17.479Z,96551.03
2023-04-02T08:57:24.236Z,96532.78
2023-04-02T08:59:59.426Z,96541.84
2023-04-02T09:02:37.847Z,96539.56
2023-04-02T09:05:07.649Z,96546.84
2023-04-02T09:07:35.785Z,96555.94
2023-04-02T09:10:04.404Z,96546.19
2023-04-02T09:12:32.280Z,96543.94
2023-04-02T09:15:22.679Z,96545.34
2023-04-02T09:18:13.590Z,96543.28
2023-04-02T09:20:41.314Z,96537.09
2023-04-02T09:23:22.858Z,96533.53
2023-04-02T09:26:03.344Z,96536.47
2023-04-02T09:28:32.148Z,96527.06
2023-04-02T09:31:06.247Z,96524.81
2023-04-02T09:33:48.937Z,96527.03
2023-04-02T09:36:36.392Z,96523.56
2023-04-02T09:39:07.008Z,96533.75
2023-04-02T09:41:36.855Z,96531.28
2023-04-02T09:44:24.158Z,96523.31
2023-04-02T09:47:23.557Z,96525.75
2023-04-02T09:49:51.396Z,96516.34
2023-04-02T09:52:29.216Z,96525.13
2023-04-02T09:55:15.511Z,96508.03
2023-04-02T09:57:43.450Z,96521.03
2023-04-02T10:00:29.799Z,96514.38
2023-04-02T10:03:26.674Z,96516.34
2023-04-02T10:06:14.307Z,96515.41
2023-04-02T10:08:43.478Z,96508.59
2023-04-02T10:11:14.104Z,96509.66
2023-04-02T10:13:51.096Z,96511.13
2023-04-02T10:16:40.730Z,96503.03
2023-04-02T10:19:32.448Z,96503.09
2023-04-02T10:22:02.209Z,96502.47
2023-04-02T10:24:29.960Z,96504.78
2023-04-02T10:27:22.604Z,96497.69
2023-04-02T10:30:02.812Z,96497.59
2023-04-02T10:32:32.559Z,96491.97
2023-04-02T10:35:18.714Z,96488.91
2023-04-02T10:37:47.008Z,96489.94
2023-04-02T10:40:29.989Z,96493.19
2023-04-02T10:43:37.803Z,96491.44
2023-04-02T10:46:17.623Z,96483.94
2023-04-02T10:48:57.402Z,96476.38
2023-04-02T10:51:39.565Z,96487.97
2023-04-02T10:54:13.440Z,96479.03
2023-04-02T10:56:50.773Z,96468.78
2023-04-02T10:59:27.866Z,96475.03
2023-04-02T11:01:56.156Z,96484.31
2023-04-02T11:04:38.127Z,96488.28
2023-04-02T11:07:14.506Z,96475.72
2023-04-02T11:09:44.224Z,96480.72
2023-04-02T11:12:22.024Z,96464.06
2023-04-02T11:14:49.757Z,96468.47
2023-04-02T11:17:17.985Z,96462.47
2023-04-02T11:19:45.676Z,96463.06
2023-04-02T11:22:23.761Z,96463.56
2023-04-02T11:24:55.037Z,96462.13
2023-04-02T11:27:22.797Z,96455.47
2023-04-02T11:29:51.944Z,96453.09
2023-04-02T11:32:27.555Z,96451.97
2023-04-02T11:35:05.111Z,96455.09
2023-04-02T11:37:43.264Z,96467.75
2023-04-02T11:40:10.957Z,96453.06
2023-04-02T11:42:41.980Z,96454.34
2023-04-02T11:45:26.277Z,96453.78
2023-04-02T11:48:00.696Z,96457.97
2023-04-02T11:50:41.842Z,96450.97
2023-04-02T11:53:12.879Z,96449.41
2023-04-02T11:55:41.658Z,96445.13
2023-04-02T11:58:28.183Z,96440.97
2023-04-02T12:01:14.911Z,96444.56
2023-04-02T12:03:48.284Z,96443.97
2023-04-02T12:06:39.874Z,96447.53
2023-04-02T12:09:19.731Z,96436.03
2023-04-02T12:11:47.640Z,96451.22
2023-04-02T12:14:45.816Z,96450.47
2023-04-02T12:17:32.532Z,96445.09
2023-04-02T12:20:09.799Z,96447.84
2023-04-02T12:22:48.560Z,96450.94
2023-04-02T12:25:33.505Z,96454.31
2023-04-02T12:28:19.999Z,96450.72
2023-04-02T12:30:48.650Z,96449.97
2023-04-02T12:33:16.546Z,96434.41
2023-04-02T12:35:44.485Z,96437.94
2023-04-02T12:38:29.210Z,96431.41
2023-04-02T12:41:01.975Z,96436.16
2023-04-02T12:43:30.801Z,96433.81
2023-04-02T12:46:00.367Z,96431.97
2023-04-02T12:48:28.189Z,96429.59
2023-04-02T12:50:56.461Z,96425.50
2023-04-02T12:53:36.645Z,96432.25
2023-04-02T12:56:05.521Z,96423.31
2023-04-02T12:58:36.892Z,96423.44
2023-04-02T13:01:18.618Z,96429.00
2023-04-02T13:04:12.252Z,96425.84
2023-04-02T13:06:41.281Z,96438.38
2023-04-02T13:09:36.106Z,96428.19
2023-04-02T13:12:05.963Z,96418.66
2023-04-02T13:14:33.692Z,96412.00
2023-04-02T13:17:01.473Z,96416.22
2023-04-02T13:19:32.941Z,96426.00
2023-04-02T13:22:01.603Z,96409.44
2023-04-02T13:24:31.119Z,96417.47
2023-04-02T13:27:02.566Z,96417.44
2023-04-02T13:29:31.536Z,96411.13
2023-04-02T13:32:01.158Z,96412.31
2023-04-02T13:34:29.066Z,96405.16
2023-04-02T13:36:57.478Z,96405.94
2023-04-02T13:39:25.410Z,96412.94
2023-04-02T13:42:00.503Z,96411.75
2023-04-02T13:44:30.007Z,96407.19
2023-04-02T13:46:59.072Z,96408.56
2023-04-02T13:49:27.552Z,96398.78
2023-04-02T13:51:59.853Z,96399.75
2023-04-02T13:54:41.207Z,96406.31
2023-04-02T13:57:09.197Z,96397.25
2023-04-02T13:59:36.899Z,96405.00
2023-04-02T14:02:17.233Z,96401.72
2023-04-02T14:04:50.488Z,96387.78
2023-04-02T14:07:43.509Z,96400.53
2023-04-02T14:10:21.476Z,96398.69
2023-04-02T14:13:14.028Z,96396.47
2023-04-02T14:15:44.692Z,96397.81
2023-04-02T14:18:16.609Z,96411.84
2023-04-02T14:21:03.670Z,96392.34
2023-04-02T14:23:34.214Z,96388.03
2023-04-02T14:26:39.586Z,96392.94
2023-04-02T14:29:18.645Z,96395.63
2023-04-02T14:31:49.308Z,96394.25
2023-04-02T14:34:20.061Z,96395.28
2023-04-02T14:36:56.493Z,96396.66
2023-04-02T14:39:27.299Z,96391.34
2023-04-02T14:42:33.395Z,96393.88
2023-04-02T14:45:07.660Z,96392.69
2023-04-02T14:47:39.701Z,96391.25
2023-04-02T14:50:20.072Z,96390.50
2023-04-02T14:52:49.890Z,96405.00
2023-04-02T14:55:47.909Z,96398.00
2023-04-02T14:58:21.391Z,96402.38
2023-04-02T15:01:28.236Z,96410.53
2023-04-02T15:04:05.049Z,96409.63
2023-04-02T15:06:44.609Z,96410.59
2023-04-02T15:09:34.105Z,96403.41
2023-04-02T15:12:13.649Z,96413.50
2023-04-02T15:14:44.559Z,96414.47
2023-04-02T15:17:12.355Z,96415.22
2023-04-02T15:19:40.104Z,96423.59
2023-04-02T15:22:19.512Z,96410.81
2023-04-02T15:25:18.643Z,96414.25
2023-04-02T15:28:05.184Z,96428.06
2023-04-02T15:30:38.171Z,96418.34
2023-04-02T15:33:27.900Z,96427.72
2023-04-02T15:36:26.918Z,96436.25
2023-04-02T15:39:00.455Z,96439.47
2023-04-02T15:41:32.345Z,96434.19
2023-04-02T15:44:06.093Z,96434.97
2023-04-02T15:47:12.538Z,96440.16
2023-04-02T15:50:12.633Z,96440.19
2023-04-02T15:53:00.832Z,96447.25
2023-04-02T15:55:49.577Z,96445.59
2023-04-02T15:59:08.565Z,96445.59
2023-04-02T16:02:53.356Z,96447.22
2023-04-02T16:06:06.374Z,96442.72
2023-04-02T16:08:58.956Z,96449.47
2023-04-02T16:11:27.431Z,96465.50
2023-04-02T16:14:17.633Z,96457.88
2023-04-02T16:16:46.727Z,96457.09
2023-04-02T16:19:34.726Z,96453.25
2023-04-02T16:22:03.489Z,96473.50
2023-04-02T16:24:31.151Z,96477.63
2023-04-02T16:27:35.894Z,96477.44
2023-04-02T16:30:03.528Z,96474.09
2023-04-02T16:33:05.371Z,96482.78
2023-04-02T16:35:55.325Z,96480.56
2023-04-02T16:38:44.125Z,96485.94
2023-04-02T16:41:31.374Z,96481.78
2023-04-02T16:44:16.902Z,96492.59
2023-04-02T16:47:03.281Z,96492.31
2023-04-02T16:49:40.375Z,96491.59
2023-04-02T16:52:16.125Z,96494.53
2023-04-02T16:55:02.067Z,96504.59
2023-04-02T16:57:55.554Z,96502.81
2023-04-02T17:00:46.407Z,96505.16
2023-04-02T17:03:39.193Z,96507.06
2023-04-02T17:06:09.470Z,96508.31
2023-04-02T17:09:06.251Z,96514.03
2023-04-02T17:11:41.527Z,96529.75
2023-04-02T17:14:40.697Z,96525.84
2023-04-02T17:17:10.436Z,96532.59
2023-04-02T17:19:38.090Z,96533.97
2023-04-02T17:22:06.153Z,96542.53
2023-04-02T17:24:41.937Z,96546.59
2023-04-02T17:27:22.185Z,96561.28
2023-04-02T17:29:52.791Z,96557.88
2023-04-02T17:32:29.912Z,96576.44
2023-04-02T17:34:58.216Z,96587.69
2023-04-02T17:37:31.257Z,96591.28
2023-04-02T17:40:08.367Z,96590.09
2023-04-02T17:43:03.082Z,96593.63
2023-04-02T17:45:49.314Z,96606.38
2023-04-02T17:48:28.497Z,96608.44
2023-04-02T17:51:03.549Z,96601.97
2023-04-02T17:53:47.446Z,96615.50
2023-04-02T17:56:34.322Z,96611.72
2023-04-02T17:59:17.688Z,96626.06
2023-04-02T18:01:54.387Z,96621.16
2023-04-02T18:04:27.761Z,96636.22
2023-04-02T18:06:58.447Z,96631.94
2023-04-02T18:09:45.446Z,96633.56
2023-04-02T18:12:13.063Z,96643.31
2023-04-02T18:14:58.957Z,96642.13
2023-04-02T18:17:54.289Z,96650.31
2023-04-02T18:20:47.089Z,96635.03
2023-04-02T18:23:32.656Z,96643.78
2023-04-02T18:26:09.425Z,96644.22
2023-04-02T18:28:47.613Z,96653.13
2023-04-02T18:31:40.316Z,96661.69
2023-04-02T18:34:53.731Z,96663.28
2023-04-02T18:37:45.433Z,96673.00
2023-04-02T18:40:58.144Z,96679.78
2023-04-02T18:43:25.851Z,96674.94
2023-04-02T18:45:59.269Z,96687.91
2023-04-02T18:49:02.756Z,96689.94
2023-04-02T18:51:33.983Z,96696.63
2023-04-02T18:54:16.280Z,96693.84
2023-04-02T18:56:44.001Z,96712.19
2023-04-02T18:59:34.266Z,96710.31
2023-04-02T19:02:20.778Z,96713.25
2023-04-02T19:05:22.458Z,96717.28
2023-04-02T19:07:52.539Z,96722.16
2023-04-02T19:10:27.712Z,96727.22
2023-04-02T19:12:55.560Z,96729.84
2023-04-02T19:15:24.592Z,96730.03
2023-04-02T19:18:37.013Z,96725.09
2023-04-02T19:21:28.120Z,96723.47
2023-04-02T19:24:13.254Z,96724.06
2023-04-02T19:27:04.746Z,96734.31
2023-04-02T19:30:10.962Z,96738.81
2023-04-02T19:32:49.130Z,96738.00
2023-04-02T19:35:37.441Z,96737.34
2023-04-02T19:38:17.721Z,96731.75
2023-04-02T19:40:54.869Z,96755.94
2023-04-02T19:43:22.632Z,96739.31
2023-04-02T19:45:50.330Z,96751.16
2023-04-02T19:48:20.611Z,96751.22
2023-04-02T19:50:48.594Z,96747.53
2023-04-02T19:53:16.283Z,96741.53
2023-04-02T19:55:44.044Z,96742.19
2023-04-02T19:58:35.116Z,96754.28
2023-04-02T20:01:03.013Z,96757.72
2023-04-02T20:03:31.440Z,96755.03
2023-04-02T20:05:59.759Z,96750.09
2023-04-02T20:08:27.821Z,96755.38
2023-04-02T20:10:56.087Z,96761.97
2023-04-02T20:13:23.769Z,96762.56
2023-04-02T20:15:51.835Z,96762.28
2023-04-02T20:18:20.535Z,96765.34
2023-04-02T20:20:48.596Z,96765.78
2023-04-02T20:23:16.453Z,96754.47
2023-04-02T20:25:46.327Z,96764.66
2023-04-02T20:28:14.159Z,96754.69
2023-04-02T20:30:42.152Z,96753.47
2023-04-02T20:33:09.997Z,96756.03
2023-04-02T20:35:37.869Z,96755.38
2023-04-02T20:38:08.006Z,96752.69
2023-04-02T20:40:36.013Z,96755.16
2023-04-02T20:43:03.882Z,96762.16
2023-04-02T20:45:31.902Z,96759.63
2023-04-02T20:47:59.691Z,96757.06
2023-04-02T20:50:27.554Z,96762.22
2023-04-02T20:52:55.357Z,96753.47
2023-04-02T20:55:23.077Z,96755.94
2023-04-02T20:57:50.913Z,96746.97
2023-04-02T21:00:19.020Z,96752.38
2023-04-02T21:02:46.787Z,96759.53
2023-04-02T21:05:14.644Z,96753.06
2023-04-02T21:07:42.356Z,96757.44
2023-04-02T21:10:10.884Z,96768.84
2023-04-02T21:12:38.578Z,96768.00
2023-04-02T21:15:07.016Z,96769.69
2023-04-02T21:17:35.295Z,96767.78
2023-04-02T21:20:03.681Z,96761.44
2023-04-02T21:22:31.400Z,96772.22
2023-04-02T21:24:59.127Z,96775.88
2023-04-02T21:27:26.884Z,96779.97
2023-04-02T21:29:54.540Z,96784.66
2023-04-02T21:32:22.502Z,96787.66
2023-04-02T21:34:50.376Z,96787.84
2023-04-02T21:37:18.228Z,96792.84
2023-04-02T21:39:45.970Z,96795.13
2023-04-02T21:42:14.378Z,96800.59
2023-04-02T21:44:42.071Z,96799.69
2023-04-02T21:47:09.881Z,96802.13
2023-04-02T21:49:37.598Z,96802.59
2023-04-02T21:52:05.335Z,96803.75
2023-04-02T21:54:33.000Z,96800.81
2023-04-02T21:57:00.971Z,96803.56
2023-04-02T21:59:28.712Z,96792.56
2023-04-02T22:01:56.520Z,96798.22
2023-04-02T22:04:25.456Z,96799.72
2023-04-02T22:06:53.512Z,96805.47
2023-04-02T22:09:22.986Z,96795.47
2023-04-02T22:11:54.291Z,96798.78
2023-04-02T22:14:22.318Z,96796.66
2023-04-02T22:16:50.054Z,96792.66
2023-04-02T22:19:17.839Z,96796.00
2023-04-02T22:21:46.159Z,96798.28
2023-04-02T22:24:14.788Z,96799.69
2023-04-02T22:26:42.585Z,96791.22
2023-04-02T22:29:10.682Z,96795.56
2023-04-02T22:31:38.534Z,96792.09
2023-04-02T22:34:06.682Z,96787.91
2023-04-02T22:36:34.580Z,96795.44
2023-04-02T22:39:05.380Z,96797.34
2023-04-02T22:41:33.330Z,96791.50
2023-04-02T22:44:01.373Z,96796.00
2023-04-02T22:46:29.616Z,96797.34
2023-04-02T22:48:57.498Z,96794.97
2023-04-02T22:51:26.104Z,96791.97
2023-04-02T22:53:54.436Z,96801.13
2023-04-02T22:56:24.702Z,96811.69
2023-04-02T22:58:52.464Z,96809.97
2023-04-02T23:01:22.668Z,96807.56
2023-04-02T23:03:50.822Z,96804.22
2023-04-02T23:06:18.640Z,96811.78
2023-04-02T23:08:46.537Z,96805.41
2023-04-02T23:11:16.580Z,96809.22
2023-04-02T23:13:44.436Z,96799.78
2023-04-02T23:16:13.237Z,96801.53
2023-04-02T23:18:41.810Z,96804.22
2023-04-02T23:21:09.739Z,96795.31
2023-04-02T23:23:37.512Z,96797.56
2023-04-02T23:26:10.034Z,96795.84
2023-04-02T23:28:38.041Z,96789.91
2023-04-02T23:31:06.866Z,96796.06
2023-04-02T23:33:34.857Z,96800.53
2023-04-02T23:36:20.491Z,96795.09
2023-04-02T23:38:48.273Z,96795.69
2023-04-02T23:41:18.023Z,96797.13
2023-04-02T23:43:45.788Z,96794.22
2023-04-02T23:46:13.728Z,96794.28
2023-04-02T23:48:41.452Z,96793.88
2023-04-02T23:51:09.165Z,96800.97
2023-04-02T23:53:36.822Z,96797.13
2023-04-02T23:56:04.756Z,96797.72
2023-04-02T23:58:32.461Z,96787.78
